Jason Joseph — WDH6770 — position and weather

sailwx.info

Track history (hours):
 
Tides and Currents Weather Stations Pressure Air Temp Water Temp Dewpoint Dewpoint Depression Visibility Wind Speed Wind Dir Waves Ship Positions

Jason Joseph

Owner: Crosby Marine Transportation, LLC, Galliano, LA. More information available from US FCC via Universal Licensing System and Coast Guard Vessel Documentation Center.

Last reported at 2018-Apr-25 21:49 UTC. Time now 2018-Apr-26 03:41 UTC.
Position N 29°49' W 095°05'.

Length 23 m; draft 2 m.

Type: Towing. MMSI: 366991080.

Date/timePositionNaut miles runAvg speedWind from/ knotsBaromVisibWave heightAir tempDewpointWater temp
2018-Apr-25 21:49N 29°49' W 095°05'1 0.1
2018-Apr-25 14:29N 29°48' W 095°05'1 2.3
2018-Apr-25 13:59N 29°47' W 095°04'4 2.1
2018-Apr-25 12:17N 29°50' W 095°06'0 0.8
2018-Apr-25 12:00N 29°50' W 095°06'0 0.0
2018-Apr-25 11:24N 29°50' W 095°06'0 0.0
2018-Apr-25 10:56N 29°50' W 095°06'3 2.1
2018-Apr-25 09:40N 29°48' W 095°05'1 2.3
2018-Apr-25 09:03N 29°47' W 095°05'0 0.1
2018-Apr-25 08:57N 29°47' W 095°05'1 2.3
2018-Apr-25 08:20N 29°48' W 095°05'1 0.1
2018-Apr-24 22:08N 29°49' W 095°05'1 3.7
2018-Apr-24 21:45N 29°48' W 095°05'1 1.6
2018-Apr-24 21:05N 29°47' W 095°04'1 2.8
2018-Apr-24 20:53N 29°47' W 095°04'0 0.6
2018-Apr-24 20:30N 29°47' W 095°05'2 2.9
2018-Apr-24 19:45N 29°49' W 095°05'2 0.4
2018-Apr-24 14:59N 29°47' W 095°04'0 0.1
2018-Apr-24 08:36N 29°47' W 095°05'0 0.0
2018-Apr-24 02:43N 29°47' W 095°05'1 0.2
2018-Apr-23 20:59N 29°48' W 095°05'1 2.2
2018-Apr-23 20:22N 29°47' W 095°05'1 2.1
2018-Apr-23 19:41N 29°48' W 095°04'2 0.3
2018-Apr-23 13:50N 29°50' W 095°04'1 1.7
2018-Apr-23 13:24N 29°49' W 095°05'2 1.9
2018-Apr-23 12:07N 29°47' W 095°04'0 2.4
2018-Apr-23 11:58N 29°47' W 095°05'0 0.0
2018-Apr-23 05:59N 29°47' W 095°05'1 0.2
2018-Apr-22 22:47N 29°48' W 095°04'1 2.1
2018-Apr-22 22:08N 29°47' W 095°05'0 0.4
2018-Apr-22 21:58N 29°47' W 095°05'1 2.7
2018-Apr-22 21:28N 29°48' W 095°04'1 2.4
2018-Apr-22 21:00N 29°49' W 095°05'2 0.3
2018-Apr-22 12:58N 29°47' W 095°04'0 0.9
2018-Apr-22 12:30N 29°47' W 095°04'1 0.1
2018-Apr-21 17:30N 29°48' W 095°05'1 1.7
2018-Apr-21 16:43N 29°47' W 095°05'2 1.3
2018-Apr-21 15:24N 29°45' W 095°06'2 4.5
2018-Apr-21 15:00N 29°47' W 095°05'0 0.0
2018-Apr-21 14:29N 29°47' W 095°05'0 0.1
2018-Apr-21 13:59N 29°47' W 095°05'4 0.5
2018-Apr-21 05:39N 29°50' W 095°06'4 0.5
2018-Apr-20 22:04N 29°47' W 095°05'0 0.7
2018-Apr-20 21:59N 29°47' W 095°05'1 0.3
2018-Apr-20 17:23N 29°48' W 095°05'1 2.5
2018-Apr-20 16:57N 29°47' W 095°04'1 1.8
2018-Apr-20 16:26N 29°47' W 095°05'0 0.0
2018-Apr-20 00:22N 29°47' W 095°05'1 0.3
2018-Apr-19 20:27N 29°48' W 095°05'1 1.6
2018-Apr-19 19:41N 29°47' W 095°05'0 0.3
2018-Apr-19 19:29N 29°47' W 095°05'2 1.8
2018-Apr-19 18:17N 29°49' W 095°05'2 0.6
2018-Apr-19 14:38N 29°47' W 095°05'0 0.2
2018-Apr-19 14:30N 29°47' W 095°05'2 1.7
2018-Apr-19 13:10N 29°49' W 095°05'0 0.0
2018-Apr-18 22:36N 29°49' W 095°05'1 2.7
2018-Apr-18 22:06N 29°48' W 095°05'0 4.6
2018-Apr-18 22:00N 29°48' W 095°05'1 2.1
2018-Apr-18 21:24N 29°47' W 095°04'0 0.2
2018-Apr-18 21:00N 29°47' W 095°05'0 0.0
2018-Apr-18 20:30N 29°47' W 095°05'0 0.0
2018-Apr-18 19:56N 29°47' W 095°05'0 0.0
2018-Apr-18 19:30N 29°47' W 095°05'2 1.8
2018-Apr-18 18:16N 29°49' W 095°05'2 0.5
2018-Apr-18 14:01N 29°47' W 095°05'0 1.0
2018-Apr-18 14:00N 29°47' W 095°05'0 0.0
2018-Apr-18 13:30N 29°47' W 095°05'0 0.0
2018-Apr-18 13:00N 29°47' W 095°05'0 0.1
2018-Apr-18 12:30N 29°47' W 095°04'0 0.0
2018-Apr-18 07:52N 29°47' W 095°04'0 0.5
2018-Apr-18 07:28N 29°47' W 095°04'1 2.1
2018-Apr-18 06:52N 29°48' W 095°05'3 1.4
2018-Apr-18 05:03N 29°50' W 095°06'0 1.0
2018-Apr-18 04:57N 29°50' W 095°06'2 3.4
2018-Apr-18 04:30N 29°50' W 095°04'3 1.7
2018-Apr-18 02:55N 29°47' W 095°04'0 0.7
2018-Apr-18 02:30N 29°47' W 095°04'0 0.7
2018-Apr-18 02:00N 29°47' W 095°05'1 0.3
2018-Apr-17 21:43N 29°48' W 095°05'1 4.0
2018-Apr-17 21:28N 29°48' W 095°04'2 3.3
2018-Apr-17 21:00N 29°47' W 095°05'0 0.1
2018-Apr-17 20:28N 29°47' W 095°05'0 0.0
2018-Apr-17 20:00N 29°47' W 095°05'2 2.0
2018-Apr-17 18:47N 29°49' W 095°05'2 0.6
2018-Apr-17 14:56N 29°47' W 095°04'0 0.2
2018-Apr-17 14:30N 29°47' W 095°05'2 1.8
2018-Apr-17 13:36N 29°48' W 095°05'0 4.9
2018-Apr-17 13:30N 29°49' W 095°05'2 1.8
2018-Apr-17 12:30N 29°50' W 095°06'0 0.3
2018-Apr-17 11:58N 29°50' W 095°06'0 0.3
2018-Apr-17 11:30N 29°50' W 095°06'0 0.1
2018-Apr-17 10:51N 29°50' W 095°06'0 0.0
2018-Apr-17 10:22N 29°50' W 095°06'1 2.5
2018-Apr-17 09:57N 29°50' W 095°05'1 1.8
2018-Apr-17 09:26N 29°49' W 095°04'1 3.2
2018-Apr-17 08:59N 29°49' W 095°05'2 1.8
2018-Apr-17 07:56N 29°47' W 095°04'1 1.0
2018-Apr-17 07:12N 29°47' W 095°05'0 0.0
2018-Apr-17 07:00N 29°47' W 095°05'0 0.0
2018-Apr-17 06:27N 29°47' W 095°05'0 0.0
2018-Apr-17 06:00N 29°47' W 095°05'0 0.0
2018-Apr-17 05:30N 29°47' W 095°05'1 2.0
2018-Apr-17 04:46N 29°48' W 095°05'1 4.3
2018-Apr-17 04:29N 29°49' W 095°05'2 1.7
2018-Apr-17 03:32N 29°50' W 095°06'0 0.3
2018-Apr-17 03:23N 29°50' W 095°06'4 1.4
2018-Apr-17 00:36N 29°47' W 095°05'0 0.5
2018-Apr-17 00:28N 29°47' W 095°05'0 0.0
2018-Apr-16 23:41N 29°47' W 095°05'0 0.0
2018-Apr-16 22:05N 29°47' W 095°05'0 0.0
2018-Apr-16 21:59N 29°47' W 095°05'0 0.0
2018-Apr-16 21:30N 29°47' W 095°05'2 2.4
2018-Apr-16 20:30N 29°49' W 095°05'2 0.4
2018-Apr-16 14:33N 29°47' W 095°05'0 0.0
2018-Apr-16 14:30N 29°47' W 095°05'0 0.6
2018-Apr-16 13:58N 29°47' W 095°04'0 0.1
2018-Apr-16 09:10N 29°47' W 095°05'0 0.0
2018-Apr-16 08:59N 29°47' W 095°05'0 0.0
2018-Apr-16 08:25N 29°47' W 095°05'  
Track history (hours):
 
Tides and Currents Weather Stations Pressure Air Temp Water Temp Dewpoint Dewpoint Depression Visibility Wind Speed Wind Dir Waves Ship Positions

Jason Joseph

Owner: Crosby Marine Transportation, LLC, Galliano, LA. More information available from US FCC via Universal Licensing System and Coast Guard Vessel Documentation Center.

Last reported at 2018-Apr-25 21:49 UTC. Time now 2018-Apr-26 03:41 UTC.
Position N 29°49' W 095°05'.

Length 23 m; draft 2 m.

Type: Towing. MMSI: 366991080.

Date/timePositionNaut miles runAvg speedWind from/ knotsBaromVisibWave heightAir tempDewpointWater temp
2018-Apr-25 21:49N 29°49' W 095°05'1 0.1
2018-Apr-25 14:29N 29°48' W 095°05'1 2.3
2018-Apr-25 13:59N 29°47' W 095°04'4 2.1
2018-Apr-25 12:17N 29°50' W 095°06'0 0.8
2018-Apr-25 12:00N 29°50' W 095°06'0 0.0
2018-Apr-25 11:24N 29°50' W 095°06'0 0.0
2018-Apr-25 10:56N 29°50' W 095°06'3 2.1
2018-Apr-25 09:40N 29°48' W 095°05'1 2.3
2018-Apr-25 09:03N 29°47' W 095°05'0 0.1
2018-Apr-25 08:57N 29°47' W 095°05'1 2.3
2018-Apr-25 08:20N 29°48' W 095°05'1 0.1
2018-Apr-24 22:08N 29°49' W 095°05'1 3.7
2018-Apr-24 21:45N 29°48' W 095°05'1 1.6
2018-Apr-24 21:05N 29°47' W 095°04'1 2.8
2018-Apr-24 20:53N 29°47' W 095°04'0 0.6
2018-Apr-24 20:30N 29°47' W 095°05'2 2.9
2018-Apr-24 19:45N 29°49' W 095°05'2 0.4
2018-Apr-24 14:59N 29°47' W 095°04'0 0.1
2018-Apr-24 08:36N 29°47' W 095°05'0 0.0
2018-Apr-24 02:43N 29°47' W 095°05'1 0.2
2018-Apr-23 20:59N 29°48' W 095°05'1 2.2
2018-Apr-23 20:22N 29°47' W 095°05'1 2.1
2018-Apr-23 19:41N 29°48' W 095°04'2 0.3
2018-Apr-23 13:50N 29°50' W 095°04'1 1.7
2018-Apr-23 13:24N 29°49' W 095°05'2 1.9
2018-Apr-23 12:07N 29°47' W 095°04'0 2.4
2018-Apr-23 11:58N 29°47' W 095°05'0 0.0
2018-Apr-23 05:59N 29°47' W 095°05'1 0.2
2018-Apr-22 22:47N 29°48' W 095°04'1 2.1
2018-Apr-22 22:08N 29°47' W 095°05'0 0.4
2018-Apr-22 21:58N 29°47' W 095°05'1 2.7
2018-Apr-22 21:28N 29°48' W 095°04'1 2.4
2018-Apr-22 21:00N 29°49' W 095°05'2 0.3
2018-Apr-22 12:58N 29°47' W 095°04'0 0.9
2018-Apr-22 12:30N 29°47' W 095°04'1 0.1
2018-Apr-21 17:30N 29°48' W 095°05'1 1.7
2018-Apr-21 16:43N 29°47' W 095°05'2 1.3
2018-Apr-21 15:24N 29°45' W 095°06'2 4.5
2018-Apr-21 15:00N 29°47' W 095°05'0 0.0
2018-Apr-21 14:29N 29°47' W 095°05'0 0.1
2018-Apr-21 13:59N 29°47' W 095°05'4 0.5
2018-Apr-21 05:39N 29°50' W 095°06'4 0.5
2018-Apr-20 22:04N 29°47' W 095°05'0 0.7
2018-Apr-20 21:59N 29°47' W 095°05'1 0.3
2018-Apr-20 17:23N 29°48' W 095°05'1 2.5
2018-Apr-20 16:57N 29°47' W 095°04'1 1.8
2018-Apr-20 16:26N 29°47' W 095°05'0 0.0
2018-Apr-20 00:22N 29°47' W 095°05'1 0.3
2018-Apr-19 20:27N 29°48' W 095°05'1 1.6
2018-Apr-19 19:41N 29°47' W 095°05'0 0.3
2018-Apr-19 19:29N 29°47' W 095°05'2 1.8
2018-Apr-19 18:17N 29°49' W 095°05'2 0.6
2018-Apr-19 14:38N 29°47' W 095°05'0 0.2
2018-Apr-19 14:30N 29°47' W 095°05'2 1.7
2018-Apr-19 13:10N 29°49' W 095°05'0 0.0
2018-Apr-18 22:36N 29°49' W 095°05'1 2.7
2018-Apr-18 22:06N 29°48' W 095°05'0 4.6
2018-Apr-18 22:00N 29°48' W 095°05'1 2.1
2018-Apr-18 21:24N 29°47' W 095°04'0 0.2
2018-Apr-18 21:00N 29°47' W 095°05'0 0.0
2018-Apr-18 20:30N 29°47' W 095°05'0 0.0
2018-Apr-18 19:56N 29°47' W 095°05'0 0.0
2018-Apr-18 19:30N 29°47' W 095°05'2 1.8
2018-Apr-18 18:16N 29°49' W 095°05'2 0.5
2018-Apr-18 14:01N 29°47' W 095°05'0 1.0
2018-Apr-18 14:00N 29°47' W 095°05'0 0.0
2018-Apr-18 13:30N 29°47' W 095°05'0 0.0
2018-Apr-18 13:00N 29°47' W 095°05'0 0.1
2018-Apr-18 12:30N 29°47' W 095°04'0 0.0
2018-Apr-18 07:52N 29°47' W 095°04'0 0.5
2018-Apr-18 07:28N 29°47' W 095°04'1 2.1
2018-Apr-18 06:52N 29°48' W 095°05'3 1.4
2018-Apr-18 05:03N 29°50' W 095°06'0 1.0
2018-Apr-18 04:57N 29°50' W 095°06'2 3.4
2018-Apr-18 04:30N 29°50' W 095°04'3 1.7
2018-Apr-18 02:55N 29°47' W 095°04'0 0.7
2018-Apr-18 02:30N 29°47' W 095°04'0 0.7
2018-Apr-18 02:00N 29°47' W 095°05'1 0.3
2018-Apr-17 21:43N 29°48' W 095°05'1 4.0
2018-Apr-17 21:28N 29°48' W 095°04'2 3.3
2018-Apr-17 21:00N 29°47' W 095°05'0 0.1
2018-Apr-17 20:28N 29°47' W 095°05'0 0.0
2018-Apr-17 20:00N 29°47' W 095°05'2 2.0
2018-Apr-17 18:47N 29°49' W 095°05'2 0.6
2018-Apr-17 14:56N 29°47' W 095°04'0 0.2
2018-Apr-17 14:30N 29°47' W 095°05'2 1.8
2018-Apr-17 13:36N 29°48' W 095°05'0 4.9
2018-Apr-17 13:30N 29°49' W 095°05'2 1.8
2018-Apr-17 12:30N 29°50' W 095°06'0 0.3
2018-Apr-17 11:58N 29°50' W 095°06'0 0.3
2018-Apr-17 11:30N 29°50' W 095°06'0 0.1
2018-Apr-17 10:51N 29°50' W 095°06'0 0.0
2018-Apr-17 10:22N 29°50' W 095°06'1 2.5
2018-Apr-17 09:57N 29°50' W 095°05'1 1.8
2018-Apr-17 09:26N 29°49' W 095°04'1 3.2
2018-Apr-17 08:59N 29°49' W 095°05'2 1.8
2018-Apr-17 07:56N 29°47' W 095°04'1 1.0
2018-Apr-17 07:12N 29°47' W 095°05'0 0.0
2018-Apr-17 07:00N 29°47' W 095°05'0 0.0
2018-Apr-17 06:27N 29°47' W 095°05'0 0.0
2018-Apr-17 06:00N 29°47' W 095°05'0 0.0
2018-Apr-17 05:30N 29°47' W 095°05'1 2.0
2018-Apr-17 04:46N 29°48' W 095°05'1 4.3
2018-Apr-17 04:29N 29°49' W 095°05'2 1.7
2018-Apr-17 03:32N 29°50' W 095°06'0 0.3
2018-Apr-17 03:23N 29°50' W 095°06'4 1.4
2018-Apr-17 00:36N 29°47' W 095°05'0 0.5
2018-Apr-17 00:28N 29°47' W 095°05'0 0.0
2018-Apr-16 23:41N 29°47' W 095°05'0 0.0
2018-Apr-16 22:05N 29°47' W 095°05'0 0.0
2018-Apr-16 21:59N 29°47' W 095°05'0 0.0
2018-Apr-16 21:30N 29°47' W 095°05'2 2.4
2018-Apr-16 20:30N 29°49' W 095°05'2 0.4
2018-Apr-16 14:33N 29°47' W 095°05'0 0.0
2018-Apr-16 14:30N 29°47' W 095°05'0 0.6
2018-Apr-16 13:58N 29°47' W 095°04'0 0.1
2018-Apr-16 09:10N 29°47' W 095°05'0 0.0
2018-Apr-16 08:59N 29°47' W 095°05'0 0.0
2018-Apr-16 08:25N 29°47' W 095°05'  

Dump ship's entire track history